sensor_id;sensor_type;location;lat;lon;timestamp;P1;durP1;ratioP1;P2;durP2;ratioP2
8476;SDS011;4275;42.854;23.222;2023-07-20T00:01:41;10.68;;;10.38;;
8476;SDS011;4275;42.854;23.222;2023-07-20T00:04:09;10.15;;;9.85;;
8476;SDS011;4275;42.854;23.222;2023-07-20T00:06:37;9.52;;;9.23;;
8476;SDS011;4275;42.854;23.222;2023-07-20T00:09:05;9.27;;;8.98;;
8476;SDS011;4275;42.854;23.222;2023-07-20T00:11:35;8.40;;;8.20;;
8476;SDS011;4275;42.854;23.222;2023-07-20T00:14:03;8.15;;;7.95;;
8476;SDS011;4275;42.854;23.222;2023-07-20T00:26:27;8.40;;;8.20;;
8476;SDS011;4275;42.854;23.222;2023-07-20T00:32:23;8.40;;;8.20;;
8476;SDS011;4275;42.854;23.222;2023-07-20T00:34:50;8.52;;;8.32;;
8476;SDS011;4275;42.854;23.222;2023-07-20T00:37:17;8.73;;;8.52;;
8476;SDS011;4275;42.854;23.222;2023-07-20T00:39:44;8.60;;;8.40;;
8476;SDS011;4275;42.854;23.222;2023-07-20T00:42:10;8.80;;;8.60;;
8476;SDS011;4275;42.854;23.222;2023-07-20T00:44:38;8.15;;;7.95;;
8476;SDS011;4275;42.854;23.222;2023-07-20T00:47:05;8.45;;;8.25;;
8476;SDS011;4275;42.854;23.222;2023-07-20T00:49:34;8.35;;;8.15;;
8476;SDS011;4275;42.854;23.222;2023-07-20T00:52:01;8.60;;;8.40;;
8476;SDS011;4275;42.854;23.222;2023-07-20T00:54:31;8.30;;;8.10;;
8476;SDS011;4275;42.854;23.222;2023-07-20T00:56:58;8.00;;;7.80;;
8476;SDS011;4275;42.854;23.222;2023-07-20T00:59:27;8.00;;;7.80;;
8476;SDS011;4275;42.854;23.222;2023-07-20T01:01:54;8.00;;;7.80;;
8476;SDS011;4275;42.854;23.222;2023-07-20T01:07:50;10.80;;;10.50;;
8476;SDS011;4275;42.854;23.222;2023-07-20T01:10:28;7.80;;;7.60;;
8476;SDS011;4275;42.854;23.222;2023-07-20T01:12:59;7.90;;;7.70;;
8476;SDS011;4275;42.854;23.222;2023-07-20T01:15:29;8.13;;;7.93;;
8476;SDS011;4275;42.854;23.222;2023-07-20T01:17:55;9.02;;;8.75;;
8476;SDS011;4275;42.854;23.222;2023-07-20T01:20:22;8.35;;;8.15;;
8476;SDS011;4275;42.854;23.222;2023-07-20T01:25:57;9.10;;;8.80;;
8476;SDS011;4275;42.854;23.222;2023-07-20T01:32:03;11.30;;;10.90;;
8476;SDS011;4275;42.854;23.222;2023-07-20T01:41:21;10.88;;;10.57;;
8476;SDS011;4275;42.854;23.222;2023-07-20T01:43:58;9.75;;;9.45;;
8476;SDS011;4275;42.854;23.222;2023-07-20T01:53:01;10.70;;;10.40;;
8476;SDS011;4275;42.854;23.222;2023-07-20T01:58:55;11.65;;;11.25;;
8476;SDS011;4275;42.854;23.222;2023-07-20T02:01:40;12.05;;;11.65;;
8476;SDS011;4275;42.854;23.222;2023-07-20T02:10:28;12.98;;;12.48;;
8476;SDS011;4275;42.854;23.222;2023-07-20T02:19:24;13.20;;;12.70;;
8476;SDS011;4275;42.854;23.222;2023-07-20T02:21:51;13.27;;;12.77;;
8476;SDS011;4275;42.854;23.222;2023-07-20T02:24:19;12.82;;;12.32;;
8476;SDS011;4275;42.854;23.222;2023-07-20T02:26:46;12.18;;;11.77;;
8476;SDS011;4275;42.854;23.222;2023-07-20T02:29:22;11.85;;;11.45;;
8476;SDS011;4275;42.854;23.222;2023-07-20T02:31:49;11.80;;;11.40;;
8476;SDS011;4275;42.854;23.222;2023-07-20T02:34:25;11.68;;;11.27;;
8476;SDS011;4275;42.854;23.222;2023-07-20T02:40:19;10.20;;;9.90;;
8476;SDS011;4275;42.854;23.222;2023-07-20T02:42:49;9.60;;;9.30;;
8476;SDS011;4275;42.854;23.222;2023-07-20T02:45:16;9.27;;;8.98;;
8476;SDS011;4275;42.854;23.222;2023-07-20T02:51:08;8.38;;;8.18;;
8476;SDS011;4275;42.854;23.222;2023-07-20T02:53:36;8.35;;;8.15;;
8476;SDS011;4275;42.854;23.222;2023-07-20T03:02:21;8.77;;;8.57;;
8476;SDS011;4275;42.854;23.222;2023-07-20T03:11:38;9.43;;;9.13;;
8476;SDS011;4275;42.854;23.222;2023-07-20T03:14:10;9.80;;;9.50;;
8476;SDS011;4275;42.854;23.222;2023-07-20T03:23:03;10.00;;;9.70;;
8476;SDS011;4275;42.854;23.222;2023-07-20T03:28:47;9.85;;;9.55;;
8476;SDS011;4275;42.854;23.222;2023-07-20T03:34:11;10.30;;;10.00;;
8476;SDS011;4275;42.854;23.222;2023-07-20T03:36:38;10.88;;;10.57;;
8476;SDS011;4275;42.854;23.222;2023-07-20T03:39:05;11.43;;;11.02;;
8476;SDS011;4275;42.854;23.222;2023-07-20T03:41:32;12.00;;;11.60;;
8476;SDS011;4275;42.854;23.222;2023-07-20T03:44:01;11.90;;;11.50;;
8476;SDS011;4275;42.854;23.222;2023-07-20T03:46:28;11.93;;;11.52;;
8476;SDS011;4275;42.854;23.222;2023-07-20T03:48:55;12.10;;;11.70;;
8476;SDS011;4275;42.854;23.222;2023-07-20T03:51:22;12.40;;;12.00;;
8476;SDS011;4275;42.854;23.222;2023-07-20T03:53:49;13.20;;;12.70;;
8476;SDS011;4275;42.854;23.222;2023-07-20T03:56:16;13.90;;;13.30;;
8476;SDS011;4275;42.854;23.222;2023-07-20T03:58:43;14.10;;;13.50;;
8476;SDS011;4275;42.854;23.222;2023-07-20T04:01:11;14.50;;;13.90;;
8476;SDS011;4275;42.854;23.222;2023-07-20T04:03:38;14.90;;;14.20;;
8476;SDS011;4275;42.854;23.222;2023-07-20T04:06:05;14.45;;;13.85;;
8476;SDS011;4275;42.854;23.222;2023-07-20T04:08:33;15.00;;;14.30;;
8476;SDS011;4275;42.854;23.222;2023-07-20T04:11:01;15.15;;;14.45;;
8476;SDS011;4275;42.854;23.222;2023-07-20T04:13:28;15.95;;;15.15;;
8476;SDS011;4275;42.854;23.222;2023-07-20T04:15:58;15.90;;;15.10;;
8476;SDS011;4275;42.854;23.222;2023-07-20T04:18:26;16.05;;;15.25;;
8476;SDS011;4275;42.854;23.222;2023-07-20T04:20:53;16.98;;;16.08;;
8476;SDS011;4275;42.854;23.222;2023-07-20T04:23:21;16.63;;;15.73;;
8476;SDS011;4275;42.854;23.222;2023-07-20T04:25:47;17.52;;;16.55;;
8476;SDS011;4275;42.854;23.222;2023-07-20T04:28:14;16.42;;;15.52;;
8476;SDS011;4275;42.854;23.222;2023-07-20T04:30:41;16.90;;;15.90;;
8476;SDS011;4275;42.854;23.222;2023-07-20T04:33:09;17.10;;;16.10;;
8476;SDS011;4275;42.854;23.222;2023-07-20T04:35:47;16.80;;;15.90;;
8476;SDS011;4275;42.854;23.222;2023-07-20T04:38:15;16.67;;;15.77;;
8476;SDS011;4275;42.854;23.222;2023-07-20T04:40:44;16.55;;;15.65;;
8476;SDS011;4275;42.854;23.222;2023-07-20T04:43:12;16.90;;;15.98;;
8476;SDS011;4275;42.854;23.222;2023-07-20T04:45:39;17.35;;;16.35;;
8476;SDS011;4275;42.854;23.222;2023-07-20T04:48:06;18.08;;;16.98;;
8476;SDS011;4275;42.854;23.222;2023-07-20T04:50:36;17.98;;;16.88;;
8476;SDS011;4275;42.854;23.222;2023-07-20T04:53:04;18.20;;;17.10;;
8476;SDS011;4275;42.854;23.222;2023-07-20T04:55:31;18.10;;;17.10;;
8476;SDS011;4275;42.854;23.222;2023-07-20T04:58:00;18.40;;;17.30;;
8476;SDS011;4275;42.854;23.222;2023-07-20T05:00:37;18.58;;;17.48;;
8476;SDS011;4275;42.854;23.222;2023-07-20T05:03:05;18.05;;;17.05;;
8476;SDS011;4275;42.854;23.222;2023-07-20T05:05:32;18.17;;;17.05;;
8476;SDS011;4275;42.854;23.222;2023-07-20T05:07:59;17.48;;;16.48;;
8476;SDS011;4275;42.854;23.222;2023-07-20T05:10:27;17.70;;;16.70;;
8476;SDS011;4275;42.854;23.222;2023-07-20T05:12:54;17.45;;;16.48;;
8476;SDS011;4275;42.854;23.222;2023-07-20T05:15:21;18.05;;;16.95;;
8476;SDS011;4275;42.854;23.222;2023-07-20T05:17:48;16.92;;;16.02;;
8476;SDS011;4275;42.854;23.222;2023-07-20T05:20:15;17.13;;;16.23;;
8476;SDS011;4275;42.854;23.222;2023-07-20T05:22:42;16.92;;;16.02;;
8476;SDS011;4275;42.854;23.222;2023-07-20T05:25:10;17.42;;;16.42;;
8476;SDS011;4275;42.854;23.222;2023-07-20T05:27:39;17.05;;;16.10;;
8476;SDS011;4275;42.854;23.222;2023-07-20T05:30:06;16.95;;;16.05;;
8476;SDS011;4275;42.854;23.222;2023-07-20T05:32:34;16.83;;;15.93;;
8476;SDS011;4275;42.854;23.222;2023-07-20T05:35:01;17.00;;;16.10;;
8476;SDS011;4275;42.854;23.222;2023-07-20T05:37:28;17.15;;;16.25;;
8476;SDS011;4275;42.854;23.222;2023-07-20T05:39:55;17.23;;;16.23;;
8476;SDS011;4275;42.854;23.222;2023-07-20T05:42:24;17.63;;;16.63;;
8476;SDS011;4275;42.854;23.222;2023-07-20T05:44:52;17.65;;;16.65;;
8476;SDS011;4275;42.854;23.222;2023-07-20T05:47:20;17.23;;;16.33;;
8476;SDS011;4275;42.854;23.222;2023-07-20T05:49:47;17.58;;;16.67;;
8476;SDS011;4275;42.854;23.222;2023-07-20T05:52:14;17.52;;;16.63;;
8476;SDS011;4275;42.854;23.222;2023-07-20T05:54:41;17.88;;;16.88;;
8476;SDS011;4275;42.854;23.222;2023-07-20T05:57:08;17.38;;;16.48;;
8476;SDS011;4275;42.854;23.222;2023-07-20T05:59:35;17.80;;;16.90;;
8476;SDS011;4275;42.854;23.222;2023-07-20T06:02:05;17.95;;;17.05;;
8476;SDS011;4275;42.854;23.222;2023-07-20T06:04:33;17.92;;;16.92;;
8476;SDS011;4275;42.854;23.222;2023-07-20T06:07:00;17.90;;;16.90;;
8476;SDS011;4275;42.854;23.222;2023-07-20T06:09:27;18.00;;;17.00;;
8476;SDS011;4275;42.854;23.222;2023-07-20T06:11:54;18.20;;;17.20;;
8476;SDS011;4275;42.854;23.222;2023-07-20T06:14:21;18.33;;;17.33;;
8476;SDS011;4275;42.854;23.222;2023-07-20T06:16:48;18.40;;;17.40;;
8476;SDS011;4275;42.854;23.222;2023-07-20T06:19:16;18.05;;;17.15;;
8476;SDS011;4275;42.854;23.222;2023-07-20T06:21:43;18.63;;;17.63;;
8476;SDS011;4275;42.854;23.222;2023-07-20T06:24:10;18.52;;;17.52;;
8476;SDS011;4275;42.854;23.222;2023-07-20T06:26:37;18.05;;;17.13;;
8476;SDS011;4275;42.854;23.222;2023-07-20T06:29:05;18.52;;;17.52;;
8476;SDS011;4275;42.854;23.222;2023-07-20T06:31:32;18.50;;;17.50;;
8476;SDS011;4275;42.854;23.222;2023-07-20T06:33:59;18.48;;;17.48;;
8476;SDS011;4275;42.854;23.222;2023-07-20T06:36:28;19.13;;;18.13;;
8476;SDS011;4275;42.854;23.222;2023-07-20T06:38:55;18.75;;;17.75;;
8476;SDS011;4275;42.854;23.222;2023-07-20T06:41:22;19.15;;;18.15;;
8476;SDS011;4275;42.854;23.222;2023-07-20T06:43:49;19.08;;;18.08;;
8476;SDS011;4275;42.854;23.222;2023-07-20T06:46:17;18.98;;;17.88;;
8476;SDS011;4275;42.854;23.222;2023-07-20T06:48:44;20.23;;;19.13;;
8476;SDS011;4275;42.854;23.222;2023-07-20T06:51:11;20.38;;;19.27;;
8476;SDS011;4275;42.854;23.222;2023-07-20T06:53:40;20.35;;;19.25;;
8476;SDS011;4275;42.854;23.222;2023-07-20T06:56:07;20.48;;;19.38;;
8476;SDS011;4275;42.854;23.222;2023-07-20T06:58:34;20.27;;;19.27;;
8476;SDS011;4275;42.854;23.222;2023-07-20T07:01:04;20.17;;;19.17;;
8476;SDS011;4275;42.854;23.222;2023-07-20T07:03:31;20.48;;;19.38;;
8476;SDS011;4275;42.854;23.222;2023-07-20T07:05:59;20.35;;;19.25;;
8476;SDS011;4275;42.854;23.222;2023-07-20T07:08:26;19.17;;;18.20;;
8476;SDS011;4275;42.854;23.222;2023-07-20T07:10:54;19.95;;;18.95;;
8476;SDS011;4275;42.854;23.222;2023-07-20T07:13:21;19.55;;;18.55;;
8476;SDS011;4275;42.854;23.222;2023-07-20T07:15:48;19.60;;;18.60;;
8476;SDS011;4275;42.854;23.222;2023-07-20T07:18:15;19.10;;;18.10;;
8476;SDS011;4275;42.854;23.222;2023-07-20T07:20:50;18.60;;;17.60;;
8476;SDS011;4275;42.854;23.222;2023-07-20T07:23:17;19.30;;;18.30;;
8476;SDS011;4275;42.854;23.222;2023-07-20T07:25:44;19.27;;;18.27;;
8476;SDS011;4275;42.854;23.222;2023-07-20T07:28:13;19.13;;;18.13;;
8476;SDS011;4275;42.854;23.222;2023-07-20T07:30:40;19.85;;;18.85;;
8476;SDS011;4275;42.854;23.222;2023-07-20T07:33:07;19.25;;;18.25;;
8476;SDS011;4275;42.854;23.222;2023-07-20T07:35:35;19.20;;;18.20;;
8476;SDS011;4275;42.854;23.222;2023-07-20T07:38:02;19.67;;;18.67;;
8476;SDS011;4275;42.854;23.222;2023-07-20T07:40:30;19.58;;;18.58;;
8476;SDS011;4275;42.854;23.222;2023-07-20T07:42:57;19.65;;;18.65;;
8476;SDS011;4275;42.854;23.222;2023-07-20T07:45:25;19.60;;;18.60;;
8476;SDS011;4275;42.854;23.222;2023-07-20T07:47:52;19.83;;;18.73;;
8476;SDS011;4275;42.854;23.222;2023-07-20T07:50:19;19.70;;;18.60;;
8476;SDS011;4275;42.854;23.222;2023-07-20T07:52:46;19.90;;;18.80;;
8476;SDS011;4275;42.854;23.222;2023-07-20T07:55:13;19.95;;;18.85;;
8476;SDS011;4275;42.854;23.222;2023-07-20T07:57:43;19.30;;;18.25;;
8476;SDS011;4275;42.854;23.222;2023-07-20T08:00:10;19.88;;;18.77;;
8476;SDS011;4275;42.854;23.222;2023-07-20T08:02:41;19.73;;;18.63;;
8476;SDS011;4275;42.854;23.222;2023-07-20T08:05:08;19.85;;;18.75;;
8476;SDS011;4275;42.854;23.222;2023-07-20T08:07:36;19.70;;;18.60;;
8476;SDS011;4275;42.854;23.222;2023-07-20T08:10:03;19.65;;;18.55;;
8476;SDS011;4275;42.854;23.222;2023-07-20T08:12:31;20.58;;;19.38;;
8476;SDS011;4275;42.854;23.222;2023-07-20T08:14:58;20.75;;;19.55;;
8476;SDS011;4275;42.854;23.222;2023-07-20T08:17:25;20.70;;;19.50;;
8476;SDS011;4275;42.854;23.222;2023-07-20T08:19:53;20.83;;;19.63;;
8476;SDS011;4275;42.854;23.222;2023-07-20T08:22:20;21.05;;;19.85;;
8476;SDS011;4275;42.854;23.222;2023-07-20T08:24:47;21.15;;;19.95;;
8476;SDS011;4275;42.854;23.222;2023-07-20T08:27:14;21.55;;;20.25;;
8476;SDS011;4275;42.854;23.222;2023-07-20T08:29:41;20.92;;;19.73;;
8476;SDS011;4275;42.854;23.222;2023-07-20T08:32:08;20.52;;;19.33;;
8476;SDS011;4275;42.854;23.222;2023-07-20T08:34:35;21.55;;;20.25;;
8476;SDS011;4275;42.854;23.222;2023-07-20T08:37:04;21.67;;;20.40;;
8476;SDS011;4275;42.854;23.222;2023-07-20T08:39:32;21.85;;;20.55;;
8476;SDS011;4275;42.854;23.222;2023-07-20T08:42:00;21.77;;;20.48;;
8476;SDS011;4275;42.854;23.222;2023-07-20T08:44:30;21.98;;;20.67;;
8476;SDS011;4275;42.854;23.222;2023-07-20T08:46:59;21.67;;;20.38;;
8476;SDS011;4275;42.854;23.222;2023-07-20T08:49:28;22.65;;;21.25;;
8476;SDS011;4275;42.854;23.222;2023-07-20T08:51:57;22.75;;;21.35;;
8476;SDS011;4275;42.854;23.222;2023-07-20T08:54:29;22.98;;;21.58;;
8476;SDS011;4275;42.854;23.222;2023-07-20T08:56:59;22.20;;;20.90;;
8476;SDS011;4275;42.854;23.222;2023-07-20T08:59:29;22.40;;;21.00;;
8476;SDS011;4275;42.854;23.222;2023-07-20T09:01:57;22.67;;;21.27;;
8476;SDS011;4275;42.854;23.222;2023-07-20T09:04:25;23.15;;;21.75;;
8476;SDS011;4275;42.854;23.222;2023-07-20T09:06:52;22.48;;;21.17;;
8476;SDS011;4275;42.854;23.222;2023-07-20T09:09:19;23.00;;;21.60;;
8476;SDS011;4275;42.854;23.222;2023-07-20T09:11:48;23.25;;;21.85;;
8476;SDS011;4275;42.854;23.222;2023-07-20T09:14:15;23.80;;;22.30;;
8476;SDS011;4275;42.854;23.222;2023-07-20T09:16:49;22.92;;;21.52;;
8476;SDS011;4275;42.854;23.222;2023-07-20T09:19:16;22.98;;;21.58;;
8476;SDS011;4275;42.854;23.222;2023-07-20T09:21:45;23.25;;;21.75;;
8476;SDS011;4275;42.854;23.222;2023-07-20T09:24:13;22.42;;;21.02;;
8476;SDS011;4275;42.854;23.222;2023-07-20T09:26:41;22.65;;;21.25;;
8476;SDS011;4275;42.854;23.222;2023-07-20T09:29:11;22.80;;;21.50;;
8476;SDS011;4275;42.854;23.222;2023-07-20T09:31:39;22.67;;;21.27;;
8476;SDS011;4275;42.854;23.222;2023-07-20T09:34:07;23.08;;;21.67;;
8476;SDS011;4275;42.854;23.222;2023-07-20T09:36:35;23.00;;;21.60;;
8476;SDS011;4275;42.854;23.222;2023-07-20T09:39:03;22.60;;;21.30;;
8476;SDS011;4275;42.854;23.222;2023-07-20T09:41:39;23.17;;;21.77;;
8476;SDS011;4275;42.854;23.222;2023-07-20T09:44:08;22.70;;;21.30;;
8476;SDS011;4275;42.854;23.222;2023-07-20T09:46:43;22.05;;;20.75;;
8476;SDS011;4275;42.854;23.222;2023-07-20T09:49:12;22.20;;;20.80;;
8476;SDS011;4275;42.854;23.222;2023-07-20T09:51:39;22.35;;;20.95;;
8476;SDS011;4275;42.854;23.222;2023-07-20T09:54:07;22.38;;;20.98;;
8476;SDS011;4275;42.854;23.222;2023-07-20T09:56:35;22.42;;;21.02;;
8476;SDS011;4275;42.854;23.222;2023-07-20T09:59:03;22.67;;;21.27;;
8476;SDS011;4275;42.854;23.222;2023-07-20T10:01:32;22.35;;;20.95;;
8476;SDS011;4275;42.854;23.222;2023-07-20T10:04:02;22.95;;;21.55;;
8476;SDS011;4275;42.854;23.222;2023-07-20T10:06:31;22.83;;;21.42;;
8476;SDS011;4275;42.854;23.222;2023-07-20T10:09:01;22.67;;;21.27;;
8476;SDS011;4275;42.854;23.222;2023-07-20T10:11:31;22.98;;;21.58;;
8476;SDS011;4275;42.854;23.222;2023-07-20T10:14:01;22.65;;;21.25;;
8476;SDS011;4275;42.854;23.222;2023-07-20T10:16:34;21.98;;;20.67;;
8476;SDS011;4275;42.854;23.222;2023-07-20T10:19:03;22.83;;;21.45;;
8476;SDS011;4275;42.854;23.222;2023-07-20T10:21:33;22.85;;;21.55;;
8476;SDS011;4275;42.854;23.222;2023-07-20T10:24:06;22.52;;;21.23;;
8476;SDS011;4275;42.854;23.222;2023-07-20T10:26:36;21.35;;;20.15;;
8476;SDS011;4275;42.854;23.222;2023-07-20T10:29:03;21.52;;;20.33;;
8476;SDS011;4275;42.854;23.222;2023-07-20T10:31:33;27.20;;;24.63;;
8476;SDS011;4275;42.854;23.222;2023-07-20T10:34:01;21.55;;;20.35;;
8476;SDS011;4275;42.854;23.222;2023-07-20T10:36:29;21.83;;;20.63;;
8476;SDS011;4275;42.854;23.222;2023-07-20T10:38:56;21.77;;;20.58;;
8476;SDS011;4275;42.854;23.222;2023-07-20T10:41:27;21.90;;;20.60;;
8476;SDS011;4275;42.854;23.222;2023-07-20T10:43:58;22.05;;;20.75;;
8476;SDS011;4275;42.854;23.222;2023-07-20T10:46:35;22.40;;;20.90;;
8476;SDS011;4275;42.854;23.222;2023-07-20T10:49:10;22.88;;;21.38;;
8476;SDS011;4275;42.854;23.222;2023-07-20T10:51:40;22.58;;;21.08;;
8476;SDS011;4275;42.854;23.222;2023-07-20T10:54:09;22.27;;;20.77;;
8476;SDS011;4275;42.854;23.222;2023-07-20T10:56:56;21.17;;;19.83;;
8476;SDS011;4275;42.854;23.222;2023-07-20T10:59:45;22.77;;;21.27;;
8476;SDS011;4275;42.854;23.222;2023-07-20T11:02:17;22.48;;;21.08;;
8476;SDS011;4275;42.854;23.222;2023-07-20T11:04:45;21.85;;;20.55;;
8476;SDS011;4275;42.854;23.222;2023-07-20T11:07:15;22.50;;;21.10;;
8476;SDS011;4275;42.854;23.222;2023-07-20T11:09:43;22.10;;;20.77;;
8476;SDS011;4275;42.854;23.222;2023-07-20T11:12:10;23.00;;;21.50;;
8476;SDS011;4275;42.854;23.222;2023-07-20T11:14:40;22.58;;;21.08;;
8476;SDS011;4275;42.854;23.222;2023-07-20T11:17:11;22.40;;;20.90;;
8476;SDS011;4275;42.854;23.222;2023-07-20T11:19:41;22.58;;;21.08;;
8476;SDS011;4275;42.854;23.222;2023-07-20T11:22:08;22.60;;;21.10;;
8476;SDS011;4275;42.854;23.222;2023-07-20T11:24:38;22.90;;;21.30;;
8476;SDS011;4275;42.854;23.222;2023-07-20T11:27:06;23.02;;;21.42;;
8476;SDS011;4275;42.854;23.222;2023-07-20T11:29:34;23.10;;;21.60;;
8476;SDS011;4275;42.854;23.222;2023-07-20T11:32:04;22.02;;;20.52;;
8476;SDS011;4275;42.854;23.222;2023-07-20T11:34:31;22.63;;;21.02;;
8476;SDS011;4275;42.854;23.222;2023-07-20T11:37:00;22.20;;;20.60;;
8476;SDS011;4275;42.854;23.222;2023-07-20T11:39:29;22.35;;;20.75;;
8476;SDS011;4275;42.854;23.222;2023-07-20T11:41:56;22.60;;;21.00;;
8476;SDS011;4275;42.854;23.222;2023-07-20T11:44:24;21.88;;;20.38;;
8476;SDS011;4275;42.854;23.222;2023-07-20T11:46:59;22.50;;;20.90;;
8476;SDS011;4275;42.854;23.222;2023-07-20T11:49:28;22.27;;;20.73;;
8476;SDS011;4275;42.854;23.222;2023-07-20T11:51:55;22.90;;;21.30;;
8476;SDS011;4275;42.854;23.222;2023-07-20T11:54:25;23.70;;;22.00;;
8476;SDS011;4275;42.854;23.222;2023-07-20T11:56:55;23.55;;;21.95;;
8476;SDS011;4275;42.854;23.222;2023-07-20T11:59:22;23.35;;;21.77;;
8476;SDS011;4275;42.854;23.222;2023-07-20T12:01:49;25.17;;;23.58;;
8476;SDS011;4275;42.854;23.222;2023-07-20T12:04:16;23.40;;;21.90;;
8476;SDS011;4275;42.854;23.222;2023-07-20T12:06:44;23.65;;;22.15;;
8476;SDS011;4275;42.854;23.222;2023-07-20T12:09:13;24.35;;;22.75;;
8476;SDS011;4275;42.854;23.222;2023-07-20T12:11:42;24.35;;;22.75;;
8476;SDS011;4275;42.854;23.222;2023-07-20T12:14:11;25.77;;;24.17;;
8476;SDS011;4275;42.854;23.222;2023-07-20T12:16:38;22.77;;;21.27;;
8476;SDS011;4275;42.854;23.222;2023-07-20T12:19:05;22.27;;;20.80;;
8476;SDS011;4275;42.854;23.222;2023-07-20T12:21:34;22.52;;;21.02;;
8476;SDS011;4275;42.854;23.222;2023-07-20T12:24:03;21.50;;;20.20;;
8476;SDS011;4275;42.854;23.222;2023-07-20T12:26:31;22.15;;;20.75;;
8476;SDS011;4275;42.854;23.222;2023-07-20T12:29:00;22.23;;;20.83;;
8476;SDS011;4275;42.854;23.222;2023-07-20T12:31:28;21.88;;;20.55;;
8476;SDS011;4275;42.854;23.222;2023-07-20T12:33:56;21.95;;;20.55;;
8476;SDS011;4275;42.854;23.222;2023-07-20T12:36:24;22.20;;;20.80;;
8476;SDS011;4275;42.854;23.222;2023-07-20T12:38:51;22.88;;;21.38;;
8476;SDS011;4275;42.854;23.222;2023-07-20T12:41:18;27.98;;;25.98;;
8476;SDS011;4275;42.854;23.222;2023-07-20T12:43:45;36.92;;;34.92;;
8476;SDS011;4275;42.854;23.222;2023-07-20T12:46:14;35.22;;;33.33;;
8476;SDS011;4275;42.854;23.222;2023-07-20T12:48:41;35.13;;;33.22;;
8476;SDS011;4275;42.854;23.222;2023-07-20T12:51:09;35.70;;;33.70;;
8476;SDS011;4275;42.854;23.222;2023-07-20T12:53:37;35.67;;;33.67;;
8476;SDS011;4275;42.854;23.222;2023-07-20T12:56:04;35.38;;;33.38;;
8476;SDS011;4275;42.854;23.222;2023-07-20T12:58:31;35.33;;;33.35;;
8476;SDS011;4275;42.854;23.222;2023-07-20T13:00:58;35.72;;;33.72;;
8476;SDS011;4275;42.854;23.222;2023-07-20T13:03:27;32.65;;;30.95;;
8476;SDS011;4275;42.854;23.222;2023-07-20T13:05:54;35.88;;;33.88;;
8476;SDS011;4275;42.854;23.222;2023-07-20T13:08:21;36.75;;;34.75;;
8476;SDS011;4275;42.854;23.222;2023-07-20T13:10:50;34.05;;;32.22;;
8476;SDS011;4275;42.854;23.222;2023-07-20T13:13:18;31.50;;;29.90;;
8476;SDS011;4275;42.854;23.222;2023-07-20T13:15:45;35.60;;;33.60;;
8476;SDS011;4275;42.854;23.222;2023-07-20T13:18:13;36.13;;;34.13;;
8476;SDS011;4275;42.854;23.222;2023-07-20T13:20:41;36.28;;;34.28;;
8476;SDS011;4275;42.854;23.222;2023-07-20T13:23:08;31.40;;;29.80;;
8476;SDS011;4275;42.854;23.222;2023-07-20T13:25:35;36.30;;;34.30;;
8476;SDS011;4275;42.854;23.222;2023-07-20T13:28:02;35.58;;;33.67;;
8476;SDS011;4275;42.854;23.222;2023-07-20T13:30:30;35.53;;;33.63;;
8476;SDS011;4275;42.854;23.222;2023-07-20T13:32:56;35.55;;;33.65;;
8476;SDS011;4275;42.854;23.222;2023-07-20T13:35:23;35.53;;;33.63;;
8476;SDS011;4275;42.854;23.222;2023-07-20T13:37:52;35.42;;;33.42;;
8476;SDS011;4275;42.854;23.222;2023-07-20T13:40:19;37.22;;;35.13;;
8476;SDS011;4275;42.854;23.222;2023-07-20T13:42:48;30.98;;;29.38;;
8476;SDS011;4275;42.854;23.222;2023-07-20T13:45:14;30.00;;;28.50;;
8476;SDS011;4275;42.854;23.222;2023-07-20T13:47:41;31.65;;;30.02;;
8476;SDS011;4275;42.854;23.222;2023-07-20T13:50:08;30.20;;;28.70;;
8476;SDS011;4275;42.854;23.222;2023-07-20T13:52:36;30.17;;;28.67;;
8476;SDS011;4275;42.854;23.222;2023-07-20T13:55:04;30.63;;;29.02;;
8476;SDS011;4275;42.854;23.222;2023-07-20T13:57:31;30.17;;;28.65;;
8476;SDS011;4275;42.854;23.222;2023-07-20T13:59:58;30.63;;;29.13;;
8476;SDS011;4275;42.854;23.222;2023-07-20T14:02:27;24.05;;;22.58;;
8476;SDS011;4275;42.854;23.222;2023-07-20T14:04:54;24.15;;;22.65;;
8476;SDS011;4275;42.854;23.222;2023-07-20T14:07:21;24.00;;;22.60;;
8476;SDS011;4275;42.854;23.222;2023-07-20T14:09:48;24.83;;;23.33;;
8476;SDS011;4275;42.854;23.222;2023-07-20T14:12:17;24.33;;;22.92;;
8476;SDS011;4275;42.854;23.222;2023-07-20T14:14:44;24.08;;;22.67;;
8476;SDS011;4275;42.854;23.222;2023-07-20T14:17:11;25.05;;;23.55;;
8476;SDS011;4275;42.854;23.222;2023-07-20T14:19:38;23.80;;;22.40;;
8476;SDS011;4275;42.854;23.222;2023-07-20T14:22:05;22.75;;;21.45;;
8476;SDS011;4275;42.854;23.222;2023-07-20T14:24:32;23.92;;;22.52;;
8476;SDS011;4275;42.854;23.222;2023-07-20T14:26:59;23.65;;;22.25;;
8476;SDS011;4275;42.854;23.222;2023-07-20T14:29:28;23.83;;;22.42;;
8476;SDS011;4275;42.854;23.222;2023-07-20T14:31:57;24.55;;;23.15;;
8476;SDS011;4275;42.854;23.222;2023-07-20T14:34:24;23.77;;;22.45;;
8476;SDS011;4275;42.854;23.222;2023-07-20T14:36:51;24.63;;;23.23;;
8476;SDS011;4275;42.854;23.222;2023-07-20T14:39:18;23.65;;;22.35;;
8476;SDS011;4275;42.854;23.222;2023-07-20T14:41:46;23.95;;;22.65;;
8476;SDS011;4275;42.854;23.222;2023-07-20T14:44:12;23.98;;;22.65;;
8476;SDS011;4275;42.854;23.222;2023-07-20T14:46:41;23.75;;;22.45;;
8476;SDS011;4275;42.854;23.222;2023-07-20T14:49:08;24.25;;;22.92;;
8476;SDS011;4275;42.854;23.222;2023-07-20T14:51:35;24.00;;;22.70;;
8476;SDS011;4275;42.854;23.222;2023-07-20T14:54:08;23.45;;;22.15;;
8476;SDS011;4275;42.854;23.222;2023-07-20T14:56:37;23.48;;;22.08;;
8476;SDS011;4275;42.854;23.222;2023-07-20T14:59:04;24.02;;;22.73;;
8476;SDS011;4275;42.854;23.222;2023-07-20T15:01:31;24.38;;;23.08;;
8476;SDS011;4275;42.854;23.222;2023-07-20T15:04:00;24.50;;;23.10;;
8476;SDS011;4275;42.854;23.222;2023-07-20T15:06:26;24.55;;;23.25;;
8476;SDS011;4275;42.854;23.222;2023-07-20T15:08:55;23.58;;;22.27;;
8476;SDS011;4275;42.854;23.222;2023-07-20T15:11:22;24.35;;;23.05;;
8476;SDS011;4275;42.854;23.222;2023-07-20T15:13:50;24.90;;;23.50;;
8476;SDS011;4275;42.854;23.222;2023-07-20T15:16:16;25.40;;;24.00;;
8476;SDS011;4275;42.854;23.222;2023-07-20T15:18:43;24.63;;;23.33;;
8476;SDS011;4275;42.854;23.222;2023-07-20T15:21:12;24.90;;;23.55;;
8476;SDS011;4275;42.854;23.222;2023-07-20T15:23:39;23.38;;;22.08;;
8476;SDS011;4275;42.854;23.222;2023-07-20T15:26:06;24.50;;;23.20;;
8476;SDS011;4275;42.854;23.222;2023-07-20T15:28:33;24.85;;;23.45;;
8476;SDS011;4275;42.854;23.222;2023-07-20T15:31:00;24.58;;;23.20;;
8476;SDS011;4275;42.854;23.222;2023-07-20T15:33:27;24.85;;;23.45;;
8476;SDS011;4275;42.854;23.222;2023-07-20T15:35:54;24.65;;;23.25;;
8476;SDS011;4275;42.854;23.222;2023-07-20T15:38:23;24.50;;;23.10;;
8476;SDS011;4275;42.854;23.222;2023-07-20T15:40:50;24.52;;;23.13;;
8476;SDS011;4275;42.854;23.222;2023-07-20T15:43:17;22.85;;;21.65;;
8476;SDS011;4275;42.854;23.222;2023-07-20T15:45:46;22.90;;;21.60;;
8476;SDS011;4275;42.854;23.222;2023-07-20T15:48:13;22.65;;;21.35;;
8476;SDS011;4275;42.854;23.222;2023-07-20T15:50:40;22.60;;;21.30;;
8476;SDS011;4275;42.854;23.222;2023-07-20T15:53:07;23.05;;;21.75;;
8476;SDS011;4275;42.854;23.222;2023-07-20T15:55:36;22.75;;;21.45;;
8476;SDS011;4275;42.854;23.222;2023-07-20T15:58:03;23.10;;;21.80;;
8476;SDS011;4275;42.854;23.222;2023-07-20T16:00:30;23.45;;;22.15;;
8476;SDS011;4275;42.854;23.222;2023-07-20T16:02:57;22.67;;;21.40;;
8476;SDS011;4275;42.854;23.222;2023-07-20T16:05:24;23.73;;;22.42;;
8476;SDS011;4275;42.854;23.222;2023-07-20T16:07:51;22.83;;;21.52;;
8476;SDS011;4275;42.854;23.222;2023-07-20T16:10:18;22.52;;;21.33;;